Flight Track Log - Related Links

Times and Time Zones

All times are in EDT time to prevent confusion due to time zone crossing. See the N319EE flight status page for this flight to view local times or setup timezone preferences in your user account.

Time Position Orientation Groundspeed Altitude Reporting Facility
EDT Latitude Longitude Course Direction KTS MPH feet Rate Location/Type
Mon 08:58:02 AM 42.2161 -75.9081 71° East 204 235 4,000  Level Boston Center
Mon 08:59:03 AM 42.2367 -75.8475 65° Northeast 199 229 5,900 1,967 Climbing Boston Center
Mon 09:00:04 AM 42.2575 -75.7756 69° East 193 222 8,000 2,067 Climbing Boston Center
Mon 09:01:02 AM 42.2825 -75.7067 64° Northeast 193 222 10,000 1,831 Climbing Boston Center
Mon 09:02:02 AM 42.3014 -75.6319 71° East 193 222 11,600 1,537 Climbing Boston Center
Mon 09:03:00 AM 42.3744 -75.3892 71° East  Level Estimated
Mon 09:03:03 AM 42.3222 -75.5517 71° East 209 241 13,100  Level Boston Center
Mon 09:04:03 AM 42.3431 -75.4739 70° East 209 241 14,700 1,537 Climbing Boston Center
Mon 09:05:04 AM 42.3661 -75.3908 69° East 214 246 16,200 1,426 Climbing Boston Center
Mon 09:06:05 AM 42.3892 -75.3075 69° East 220 253 17,600 1,322 Climbing Boston Center
Mon 09:07:02 AM 42.4142 -75.2272 67° East 226 260 18,800 1,169 Climbing Boston Center
Mon 09:08:03 AM 42.4394 -75.1325 70° East 237 273 19,900 1,091 Climbing Boston Center
Mon 09:09:03 AM 42.4622 -75.0492 70° East 237 273 21,000 550 Climbing Boston Center
Mon 09:10:03 AM 42.4894 -74.9517 69° East 254 292 21,000  Level Boston Center
Mon 09:11:04 AM 42.5186 -74.8458 69° East 274 315 21,000  Level Boston Center
Mon 09:12:03 AM 42.5503 -74.7369 68° East 297 342 21,000  Level Boston Center
Mon 09:13:04 AM 42.5772 -74.6308 71° East 297 342 21,000  Level Boston Center
Mon 09:14:05 AM 42.6064 -74.5247 69° East 297 342 21,000  Level Boston Center
Mon 09:15:02 AM 42.6356 -74.4128 70° East 302 348 21,000  Level Boston Center
Mon 09:16:03 AM 42.6664 -74.3064 68° East 302 348 21,000  Level Boston Center
Mon 09:17:03 AM 42.6931 -74.2000 71° East 302 348 21,000  Level Boston Center
Mon 09:18:04 AM 42.7239 -74.0878 69° East 307 353 21,000  Level Boston Center
Mon 09:19:04 AM 42.7525 -73.9811 70° East 307 353 21,000  Level Boston Center
Mon 09:20:02 AM 42.7811 -73.8686 71° East 307 353 21,000  Level Boston Center
Mon 09:21:02 AM 42.8075 -73.7617 71° East 307 353 21,000  Level Boston Center
Mon 09:22:03 AM 42.8397 -73.6661 65° Northeast 302 348 21,000  Level Boston Center
Mon 09:23:03 AM 42.8703 -73.5506 70° East 302 348 21,000  Level Boston Center
Mon 09:24:04 AM 42.8942 -73.4378 74° East 302 348 21,000  Level Boston Center
Mon 09:25:03 AM 42.9242 -73.3389 67° East 302 348 21,000  Level Boston Center
Mon 09:26:03 AM 42.9564 -73.2175 70° East 308 354 21,000  Level Boston Center
Mon 09:27:03 AM 42.9819 -73.1069 72° East 303 349 21,000  Level Boston Center
Mon 09:28:03 AM 43.0117 -73.0022 69° East 303 349 21,000  Level Boston Center
Mon 09:29:04 AM 43.0331 -72.8975 74° East 303 349 21,000  Level Boston Center
Mon 09:30:03 AM 43.0625 -72.7867 70° East 303 349 21,000  Level Boston Center
Mon 09:31:03 AM 43.0900 -72.6761 71° East 303 349 21,000  Level Boston Center
Mon 09:32:04 AM 43.1236 -72.5653 67° East 303 349 21,000  Level Boston Center
Mon 09:33:02 AM 43.1506 -72.4486 72° East 303 349 21,000  Level Boston Center
Mon 09:34:03 AM 43.1756 -72.3375 73° East 298 343 21,000  Level Boston Center
Mon 09:35:04 AM 43.2025 -72.2294 71° East 298 343 21,000  Level Boston Center
Mon 09:36:02 AM 43.2294 -72.1208 71° East 298 343 21,000  Level Boston Center
Mon 09:37:02 AM 43.2561 -72.0097 72° East 298 343 21,000  Level Boston Center
Mon 09:38:03 AM 43.2828 -71.8983 72° East 298 343 21,000 -198 Level Boston Center
Mon 09:39:03 AM 43.3114 -71.7867 71° East 304 350 20,600 -1,091 Descending Boston Center
Mon 09:40:04 AM 43.3378 -71.6781 71° East 309 356 18,800 -1,966 Descending Boston Center
Mon 09:41:02 AM 43.3722 -71.5319 72° East 346 398 16,700 -1,932 Descending Boston Center
Mon 09:42:02 AM 43.3983 -71.4200 72° East 346 398 15,000 -1,736 Descending Boston Center
Mon 09:43:03 AM 43.4283 -71.2964 71° East 341 392 13,200 -1,835 Descending Boston Center
Mon 09:44:03 AM 43.4583 -71.1617 73° East 341 392 11,300 -1,091 Descending Boston Center
Mon 09:45:04 AM 43.4842 -71.0636 70° East 316 364 11,000 -403 Descending Boston Center
Mon 09:46:02 AM 43.5203 -70.9597 64° Northeast 282 325 10,500 -1,059 Descending Boston Center
Mon 09:47:03 AM 43.5569 -70.8817 57° Northeast 266 306 8,900 -1,785 Descending Boston Center
Mon 09:48:03 AM 43.5953 -70.8003 57° Northeast 260 299 6,900 -1,967 Descending Boston Center
Mon 09:49:05 AM 43.6356 -70.7103 58° Northeast 260 299 4,900 -1,815 Descending Boston Center
Mon 09:50:02 AM 43.6658 -70.6378 60° Northeast 255 293 3,300 -1,282 Descending Boston Center
Mon 09:51:02 AM 43.6606 -70.5631 96° East 191 220 2,400 -595 Descending Boston Center
Mon 09:52:03 AM 43.6594 -70.5058 92° East 162 186 2,100 -300 Descending Boston Center
Mon 09:53:02 AM 43.6542 -70.4458 97° East 146 168 1,800 -504 Descending Boston Center
Mon 09:54:02 AM 43.6514 -70.3942 94° East 141 162 1,100 -744 Descending Boston Center
Mon 09:55:03 AM 43.6481 -70.3369 95° East 141 162 300 -450 Descending Boston Center
Mon 09:56:02 AM 43.6472 -70.2908 91° East 141 162 200 5,306 Descending Boston Center
Mon 09:57:04 AM 43.6464 -70.2422 91° East 141 162 11,000 10,452 Climbing Boston Center

Login

Don't have an account? Register now (free) for customized features, flight alerts, and more!